Terminal Aerodrome Forecast
Issued by NWS

Home | Current Version | Previous Version | Text Only | Print | Product List | Glossary On
Versions: 1 2 3 4 5 6 7 8 9 10 11 12 13 14 15
000
FTUS42 TJSJ 210520
TAFJSJ
TAF
TJSJ 210520Z 2106/2206 10005KT P6SM FEW030 FEW070
     FM211430 07012G18KT P6SM SCT030
     FM212200 10006KT P6SM FEW030 SCT060=

USA.gov is the U.S. government's official web portal to all federal, state and local government web resources and services.